Boryslav — ENLB — position and weather

sailwx.info

Track history (hours):
 
Tides and Currents Weather Stations Pressure Air Temp Water Temp Dewpoint Dewpoint Depression Visibility Wind Speed Wind Dir Waves Ship Positions

Boryslav

Last reported at 2014-Sep-22 01:33 UTC. Time now 2014-Sep-22 02:09 UTC.
Position N 47°36' E 035°02'.

Length 86 m; draft 2.3 m.

Type: Ship (hazmat cat D). MMSI: 272088700.

Date/timePositionNaut miles runAvg speedWind from/ knotsBaromVisibWave heightAir tempDewpointWater temp
2014-Sep-22 01:33N 47°36' E 035°02'0 0.0
2014-Sep-22 00:28N 47°36' E 035°02'0 0.0
2014-Sep-21 23:32N 47°36' E 035°02'0 0.5
2014-Sep-21 22:32N 47°36' E 035°03'0 0.5
2014-Sep-21 21:32N 47°35' E 035°03'0 0.0
2014-Sep-21 20:30N 47°35' E 035°03'0 0.3
2014-Sep-21 19:33N 47°35' E 035°03'0 0.0
2014-Sep-21 18:33N 47°35' E 035°03'0 0.0
2014-Sep-21 17:30N 47°35' E 035°03'0 0.0
2014-Sep-21 16:32N 47°35' E 035°03'0 0.0
2014-Sep-21 15:21N 47°35' E 035°03'0 0.0
2014-Sep-21 14:33N 47°35' E 035°03'0 0.0
2014-Sep-21 13:30N 47°35' E 035°03'  
2014-Sep-13 07:33N 47°41' E 035°08'4 4.0
2014-Sep-13 06:33N 47°44' E 035°10'4 3.7
2014-Sep-13 05:33N 47°48' E 035°10'0 0.1
2014-Sep-13 04:33N 47°48' E 035°10'0 0.3
2014-Sep-13 03:33N 47°48' E 035°10'0 0.0
2014-Sep-13 02:33N 47°48' E 035°10'0 0.0
2014-Sep-13 01:33N 47°48' E 035°10'0 0.0
2014-Sep-13 00:33N 47°48' E 035°10'0 0.0
2014-Sep-12 23:33N 47°48' E 035°10'0 0.0
2014-Sep-12 22:33N 47°48' E 035°10'0 0.0
2014-Sep-12 21:33N 47°48' E 035°10'0 0.0
2014-Sep-12 20:33N 47°48' E 035°10'0 0.0
2014-Sep-12 19:33N 47°48' E 035°10'0 0.0
2014-Sep-12 18:33N 47°48' E 035°10'0 0.0
2014-Sep-12 17:33N 47°48' E 035°10'0 0.0
2014-Sep-12 16:33N 47°48' E 035°10'0 0.0
2014-Sep-12 15:33N 47°48' E 035°10'0 0.0
2014-Sep-12 14:33N 47°48' E 035°10'0 0.0
2014-Sep-12 13:33N 47°48' E 035°10'0 0.0
2014-Sep-12 12:33N 47°48' E 035°10'0 0.0
2014-Sep-12 11:33N 47°48' E 035°10'0 0.0
2014-Sep-12 10:33N 47°48' E 035°10'0 0.3
2014-Sep-12 09:33N 47°48' E 035°10'0 0.2
2014-Sep-12 08:33N 47°48' E 035°09'3 2.5
2014-Sep-12 07:33N 47°50' E 035°07'  
Track history (hours):
 
Tides and Currents Weather Stations Pressure Air Temp Water Temp Dewpoint Dewpoint Depression Visibility Wind Speed Wind Dir Waves Ship Positions

Boryslav

Last reported at 2014-Sep-22 01:33 UTC. Time now 2014-Sep-22 02:09 UTC.
Position N 47°36' E 035°02'.

Length 86 m; draft 2.3 m.

Type: Ship (hazmat cat D). MMSI: 272088700.

Date/timePositionNaut miles runAvg speedWind from/ knotsBaromVisibWave heightAir tempDewpointWater temp
2014-Sep-22 01:33N 47°36' E 035°02'0 0.0
2014-Sep-22 00:28N 47°36' E 035°02'0 0.0
2014-Sep-21 23:32N 47°36' E 035°02'0 0.5
2014-Sep-21 22:32N 47°36' E 035°03'0 0.5
2014-Sep-21 21:32N 47°35' E 035°03'0 0.0
2014-Sep-21 20:30N 47°35' E 035°03'0 0.3
2014-Sep-21 19:33N 47°35' E 035°03'0 0.0
2014-Sep-21 18:33N 47°35' E 035°03'0 0.0
2014-Sep-21 17:30N 47°35' E 035°03'0 0.0
2014-Sep-21 16:32N 47°35' E 035°03'0 0.0
2014-Sep-21 15:21N 47°35' E 035°03'0 0.0
2014-Sep-21 14:33N 47°35' E 035°03'0 0.0
2014-Sep-21 13:30N 47°35' E 035°03'  
2014-Sep-13 07:33N 47°41' E 035°08'4 4.0
2014-Sep-13 06:33N 47°44' E 035°10'4 3.7
2014-Sep-13 05:33N 47°48' E 035°10'0 0.1
2014-Sep-13 04:33N 47°48' E 035°10'0 0.3
2014-Sep-13 03:33N 47°48' E 035°10'0 0.0
2014-Sep-13 02:33N 47°48' E 035°10'0 0.0
2014-Sep-13 01:33N 47°48' E 035°10'0 0.0
2014-Sep-13 00:33N 47°48' E 035°10'0 0.0
2014-Sep-12 23:33N 47°48' E 035°10'0 0.0
2014-Sep-12 22:33N 47°48' E 035°10'0 0.0
2014-Sep-12 21:33N 47°48' E 035°10'0 0.0
2014-Sep-12 20:33N 47°48' E 035°10'0 0.0
2014-Sep-12 19:33N 47°48' E 035°10'0 0.0
2014-Sep-12 18:33N 47°48' E 035°10'0 0.0
2014-Sep-12 17:33N 47°48' E 035°10'0 0.0
2014-Sep-12 16:33N 47°48' E 035°10'0 0.0
2014-Sep-12 15:33N 47°48' E 035°10'0 0.0
2014-Sep-12 14:33N 47°48' E 035°10'0 0.0
2014-Sep-12 13:33N 47°48' E 035°10'0 0.0
2014-Sep-12 12:33N 47°48' E 035°10'0 0.0
2014-Sep-12 11:33N 47°48' E 035°10'0 0.0
2014-Sep-12 10:33N 47°48' E 035°10'0 0.3
2014-Sep-12 09:33N 47°48' E 035°10'0 0.2
2014-Sep-12 08:33N 47°48' E 035°09'3 2.5
2014-Sep-12 07:33N 47°50' E 035°07'  

Dump ship's entire track history